»·PEaware :: N3455E KLGB-KSNA

N3455E :: KLGB-KSNA

FLIGHT INFORMATION

Flight Status: Arrived
Operator: Privately registered:
United States
More flights under this callsign
Pilot: Anonymous 19359 (19359)
Aircraft: Diamond DA-62
(DA62)
More flights by this aircraft type
Origin: KLGB Long Beach
United States
Destination: KSNA John Wayne-Orange Co
United States
More flights between these airports :: More routes between these airports
Route: +
File this flight plan on PilotEdge
Remarks:
Altitude:
(Current/Filed)
0ft
Speed:
(Current/Filed)
0kts
Departed: 15-Apr-20 04:08 PM
Arrived: 15-Apr-20 04:30 PM
Distance/Time
Traveled:
16nm/0:22
Distance/Time
To Go:
Arrived

Flight Plot

Page will automatically refresh every two minutes.


Map Options




Map Legend


Flown Route
Filed Route
Departure Airport
Arrival Airport
Navaid (VOR, NDB)
Fix

Horizontal Profiles

Position Reports

Time Latitude Longitude Heading Altitude Ground
Speed
15-Apr-20 15:54 33.812639 -118.160082 269 64ft 0kts
15-Apr-20 15:55 33.812639 -118.160082 269 64ft 0kts
15-Apr-20 15:56 33.812639 -118.160082 269 64ft 0kts
15-Apr-20 15:57 33.812639 -118.160082 269 64ft 0kts
15-Apr-20 15:58 33.812639 -118.160082 269 64ft 0kts
15-Apr-20 15:59 33.812639 -118.160083 269 64ft 0kts
15-Apr-20 16:01 33.812765 -118.160440 359 64ft 0kts
15-Apr-20 16:02 33.812765 -118.160440 359 64ft 0kts
15-Apr-20 16:03 33.812782 -118.160439 3 64ft 2kts
15-Apr-20 16:04 33.813072 -118.158392 88 64ft 9kts
15-Apr-20 16:05 33.813081 -118.150931 90 64ft 28kts
15-Apr-20 16:06 33.813238 -118.148045 329 64ft 0kts
15-Apr-20 16:07 33.813392 -118.148115 344 64ft 5kts
15-Apr-20 16:08 33.813786 -118.152719 269 64ft 72kts
15-Apr-20 16:09 33.814401 -118.182417 264 729ft 95kts
15-Apr-20 16:10 33.793788 -118.201977 186 1711ft 113kts
15-Apr-20 16:11 33.759251 -118.201591 183 2287ft 139kts
15-Apr-20 16:12 33.723137 -118.189654 110 2309ft 154kts
15-Apr-20 16:13 33.726301 -118.144357 70 2960ft 141kts
15-Apr-20 16:14 33.741306 -118.094431 70 2985ft 168kts
15-Apr-20 16:15 33.757614 -118.041092 70 2984ft 171kts
15-Apr-20 16:16 33.775618 -117.988338 60 2983ft 171kts
15-Apr-20 16:16 33.794550 -117.946474 61 2983ft 170kts
15-Apr-20 16:18 33.820149 -117.887477 50 2963ft 168kts
15-Apr-20 16:19 33.857036 -117.855255 31 2968ft 163kts
15-Apr-20 16:19 33.887969 -117.829166 31 2965ft 162kts
15-Apr-20 16:20 33.888346 -117.779315 111 2967ft 168kts
15-Apr-20 16:22 33.847551 -117.760186 206 2969ft 147kts
15-Apr-20 16:22 33.818108 -117.778262 211 2975ft 139kts
15-Apr-20 16:23 33.787166 -117.797986 211 2429ft 114kts
15-Apr-20 16:24 33.762176 -117.813900 211 1881ft 95kts
15-Apr-20 16:26 33.734859 -117.830275 213 1287ft 92kts
15-Apr-20 16:26 33.716736 -117.842932 213 865ft 88kts
15-Apr-20 16:27 33.695544 -117.856351 211 409ft 84kts
15-Apr-20 16:28 33.675997 -117.868530 210 60ft 58kts
15-Apr-20 16:29 33.674242 -117.870832 302 60ft 0kts
15-Apr-20 16:30 33.673252 -117.872498 226 60ft 14kts
15-Apr-20 16:31 33.672823 -117.872883 209 60ft 0kts
15-Apr-20 16:32 33.672823 -117.872883 209 60ft 0kts
15-Apr-20 16:33 33.672823 -117.872883 209 60ft 0kts
15-Apr-20 16:34 33.672823 -117.872883 209 60ft 0kts
15-Apr-20 16:35 33.672823 -117.872883 209 60ft 0kts
15-Apr-20 16:36 33.672823 -117.872883 209 60ft 0kts
15-Apr-20 16:37 33.672823 -117.872883 209 60ft 0kts
15-Apr-20 16:38 33.672823 -117.872883 209 60ft 0kts
15-Apr-20 16:39 33.672823 -117.872883 209 60ft 0kts
15-Apr-20 16:40 33.672823 -117.872883 209 60ft 0kts
15-Apr-20 16:41 33.672823 -117.872883 209 60ft 0kts
15-Apr-20 16:42 33.672823 -117.872883 209 60ft 0kts
15-Apr-20 16:43 33.672823 -117.872883 209 60ft 0kts

Navigation Log

Ident Type
Flight plan parsing failed, navigation log unavailable